createdAt,value
2022-08-08T11:16:32.874Z,100668.32
2022-08-08T11:19:10.878Z,100664.65
2022-08-08T11:21:55.800Z,100661.20
2022-08-08T11:24:31.253Z,100655.02
2022-08-08T11:27:19.578Z,100661.93
2022-08-08T11:30:19.613Z,100658.02
2022-08-08T11:32:57.498Z,100659.27
2022-08-08T11:35:42.543Z,100661.20
2022-08-08T11:38:38.509Z,100649.98
2022-08-08T11:41:15.415Z,100661.10
2022-08-08T11:43:51.097Z,100654.19
2022-08-08T11:46:32.594Z,100641.73
2022-08-08T11:49:14.693Z,100646.35
2022-08-08T11:51:53.278Z,100642.23
2022-08-08T11:54:46.506Z,100631.56
2022-08-08T11:57:27.394Z,100634.69
2022-08-08T12:00:07.642Z,100629.07
2022-08-08T12:02:55.858Z,100627.20
2022-08-08T12:05:37.504Z,100625.39
2022-08-08T12:08:12.661Z,100614.13
2022-08-08T12:11:01.562Z,100608.20
2022-08-08T12:14:02.734Z,100595.52
2022-08-08T12:16:43.446Z,100600.25
2022-08-08T12:19:37.650Z,100607.50
2022-08-08T12:22:33.551Z,100609.53
2022-08-08T12:25:31.103Z,100603.73
2022-08-08T12:28:19.248Z,100595.52
2022-08-08T12:30:55.550Z,100602.84
2022-08-08T12:33:37.622Z,100601.32
2022-08-08T12:36:28.590Z,100582.08
2022-08-08T12:39:10.662Z,100578.58
2022-08-08T12:41:57.075Z,100584.71
2022-08-08T12:44:39.124Z,100580.84
2022-08-08T12:47:17.158Z,100579.17
2022-08-08T12:49:58.669Z,100580.10
2022-08-08T12:52:41.016Z,100584.25
2022-08-08T12:55:31.910Z,100577.64
2022-08-08T12:58:15.453Z,100573.25
2022-08-08T13:00:51.738Z,100578.95
2022-08-08T13:03:36.130Z,100576.03
2022-08-08T13:06:15.313Z,100569.35
2022-08-08T13:08:57.403Z,100565.92
2022-08-08T13:12:26.819Z,100571.27
2022-08-08T13:14:52.788Z,100573.95
2022-08-08T13:17:54.428Z,100574.14
2022-08-08T13:20:26.104Z,100559.77
2022-08-08T13:23:30.569Z,100560.52
2022-08-08T13:26:01.402Z,100563.84
2022-08-08T13:28:42.286Z,100564.39
2022-08-08T13:31:17.263Z,100563.45
2022-08-08T13:33:51.360Z,100562.04
2022-08-08T13:36:28.084Z,100564.02
2022-08-08T13:39:01.522Z,100557.09
2022-08-08T13:41:39.324Z,100554.55
2022-08-08T13:44:19.756Z,100553.86
2022-08-08T13:47:19.343Z,100538.17
2022-08-08T13:50:38.698Z,100536.05
2022-08-08T13:53:02.915Z,100535.97
2022-08-08T13:56:11.614Z,100546.13
2022-08-08T13:58:56.247Z,100539.20
2022-08-08T14:01:53.093Z,100538.04
2022-08-08T14:04:30.571Z,100534.37
2022-08-08T14:07:05.761Z,100533.65
2022-08-08T14:10:04.579Z,100531.98
2022-08-08T14:12:43.669Z,100535.14
2022-08-08T14:15:39.791Z,100527.80
2022-08-08T14:18:36.067Z,100520.05
2022-08-08T14:21:52.109Z,100526.30
2022-08-08T14:24:39.762Z,100527.05
2022-08-08T14:27:34.099Z,100525.65
2022-08-08T14:30:17.752Z,100520.39
2022-08-08T14:32:55.298Z,100515.45
2022-08-08T14:35:35.940Z,100514.48
2022-08-08T14:38:33.658Z,100517.79
2022-08-08T14:41:53.175Z,100515.55
2022-08-08T14:44:22.167Z,100516.08
2022-08-08T14:47:21.145Z,100514.09
2022-08-08T14:50:22.554Z,100509.87
2022-08-08T14:53:14.233Z,100491.70
2022-08-08T14:55:48.237Z,100509.19
2022-08-08T14:58:38.724Z,100506.38
2022-08-08T15:01:23.336Z,100502.66
2022-08-08T15:04:08.786Z,100510.84
2022-08-08T15:06:45.427Z,100509.38
2022-08-08T15:09:20.029Z,100498.36
2022-08-08T15:11:55.861Z,100495.41
2022-08-08T15:14:33.944Z,100509.23
2022-08-08T15:17:08.477Z,100504.21
2022-08-08T15:19:42.136Z,100496.71
2022-08-08T15:22:18.091Z,100494.77
2022-08-08T15:24:59.431Z,100496.16
2022-08-08T15:28:04.300Z,100498.73
2022-08-08T15:30:29.528Z,100493.55
2022-08-08T15:33:03.515Z,100496.20
2022-08-08T15:35:39.037Z,100490.23
2022-08-08T15:38:15.899Z,100500.67
2022-08-08T15:40:50.346Z,100496.15
2022-08-08T15:43:35.690Z,100500.39
2022-08-08T15:46:11.093Z,100504.48
2022-08-08T15:48:44.654Z,100502.59
2022-08-08T15:51:18.851Z,100500.14
2022-08-08T15:53:53.235Z,100497.90
2022-08-08T15:56:29.546Z,100500.54
2022-08-08T15:59:03.400Z,100506.08
2022-08-08T16:01:40.881Z,100502.64
2022-08-08T16:04:32.969Z,100506.66
2022-08-08T16:07:06.722Z,100513.32
2022-08-08T16:13:04.571Z,100503.91
2022-08-08T16:13:05.030Z,100512.05
2022-08-08T16:15:32.809Z,100519.25
2022-08-08T16:18:12.058Z,100528.54
2022-08-08T16:20:50.999Z,100527.58
2022-08-08T16:23:25.230Z,100535.48
2022-08-08T16:26:03.953Z,100521.69
2022-08-08T16:28:38.952Z,100530.27
2022-08-08T16:31:15.182Z,100542.16
2022-08-08T16:33:57.938Z,100545.36
2022-08-08T16:36:34.299Z,100549.45
2022-08-08T16:39:09.912Z,100547.35
2022-08-08T16:41:53.066Z,100552.27
2022-08-08T16:44:33.701Z,100550.42
2022-08-08T16:47:39.911Z,100556.71
2022-08-08T16:50:20.148Z,100552.84
2022-08-08T16:55:20.749Z,100554.95
2022-08-08T16:55:55.793Z,100566.79
2022-08-08T16:58:36.384Z,100556.39
2022-08-08T17:01:16.993Z,100570.58
2022-08-08T17:04:00.193Z,100565.96
2022-08-08T17:06:39.842Z,100582.77
2022-08-08T17:09:23.824Z,100571.95
2022-08-08T17:11:59.403Z,100582.13
2022-08-08T17:14:38.126Z,100570.33
2022-08-08T17:17:41.721Z,100581.79
2022-08-08T17:20:08.302Z,100597.41
2022-08-08T17:22:43.820Z,100594.63
2022-08-08T17:25:17.020Z,100595.17
2022-08-08T17:27:50.327Z,100607.37
2022-08-08T17:30:29.341Z,100599.98
2022-08-08T17:34:54.461Z,100614.83
2022-08-08T17:36:12.605Z,100612.78
2022-08-08T17:38:56.518Z,100616.75
2022-08-08T17:41:45.307Z,100621.95
2022-08-08T17:44:23.484Z,100625.80
2022-08-08T17:47:01.039Z,100626.77
2022-08-08T17:49:38.192Z,100625.33
2022-08-08T17:52:17.154Z,100631.71
2022-08-08T17:54:51.846Z,100634.23
2022-08-08T17:57:35.621Z,100635.85
2022-08-08T18:00:19.585Z,100643.48
2022-08-08T18:03:08.452Z,100645.07
2022-08-08T18:05:50.116Z,100643.14
2022-08-08T18:08:40.967Z,100642.66
2022-08-08T18:11:20.853Z,100643.48
2022-08-08T18:13:54.585Z,100641.11
2022-08-08T18:16:31.202Z,100649.03
2022-08-08T18:19:04.955Z,100645.57
2022-08-08T18:21:59.350Z,100648.08
2022-08-08T18:24:37.512Z,100638.73
2022-08-08T18:27:17.117Z,100650.29
2022-08-08T18:29:52.322Z,100643.87
2022-08-08T18:32:26.091Z,100648.68
2022-08-08T18:34:59.666Z,100661.45
2022-08-08T18:37:34.979Z,100670.63
2022-08-08T18:40:35.126Z,100674.13
2022-08-08T18:43:14.815Z,100674.61
2022-08-08T18:46:52.689Z,100682.78
2022-08-08T18:48:46.408Z,100683.45
2022-08-08T18:51:48.687Z,100689.27
2022-08-08T18:54:22.880Z,100688.97
2022-08-08T18:57:05.234Z,100687.94
2022-08-08T18:59:43.332Z,100692.30
2022-08-08T19:02:27.368Z,100691.21
2022-08-08T19:05:05.294Z,100690.59
2022-08-08T19:07:39.724Z,100680.46
2022-08-08T19:10:28.893Z,100691.34
2022-08-08T19:13:06.253Z,100695.30
2022-08-08T19:15:56.182Z,100696.09
2022-08-08T19:18:48.435Z,100694.08
2022-08-08T19:21:30.850Z,100697.42
2022-08-08T19:24:12.699Z,100695.70
2022-08-08T19:27:03.957Z,100703.27
2022-08-08T19:29:40.930Z,100708.23
2022-08-08T19:32:23.149Z,100707.23
2022-08-08T19:34:59.522Z,100700.73
2022-08-08T19:37:43.420Z,100700.17
2022-08-08T19:40:30.895Z,100714.11
2022-08-08T19:43:11.688Z,100713.38
2022-08-08T19:45:59.360Z,100713.05
2022-08-08T19:48:37.189Z,100699.46
2022-08-08T19:51:10.562Z,100705.65
2022-08-08T19:53:54.173Z,100706.02
2022-08-08T19:56:39.736Z,100705.94
2022-08-08T19:59:22.354Z,100703.86
2022-08-08T20:02:03.306Z,100706.48
2022-08-08T20:04:39.305Z,100708.95
2022-08-08T20:08:29.882Z,100713.16
2022-08-08T20:10:08.691Z,100698.95
2022-08-08T20:13:11.295Z,100690.17
2022-08-08T20:16:00.345Z,100699.57
2022-08-08T20:18:37.337Z,100711.02
2022-08-08T20:21:32.051Z,100713.31
2022-08-08T20:24:13.384Z,100713.45
2022-08-08T20:26:49.413Z,100705.25
2022-08-08T20:29:23.507Z,100713.90
2022-08-08T20:32:10.217Z,100713.73
2022-08-08T20:34:53.791Z,100708.36
2022-08-08T20:37:53.071Z,100719.02
2022-08-08T20:40:33.659Z,100718.14
2022-08-08T20:43:22.980Z,100717.15
2022-08-08T20:46:09.739Z,100714.90
2022-08-08T20:48:46.288Z,100709.73
2022-08-08T20:51:21.285Z,100716.27
2022-08-08T20:54:00.825Z,100715.98
2022-08-08T20:57:04.351Z,100714.71
2022-08-08T20:59:41.284Z,100707.91
2022-08-08T21:02:25.808Z,100719.56
2022-08-08T21:05:02.036Z,100719.18
2022-08-08T21:08:00.811Z,100710.04
2022-08-08T21:10:32.232Z,100713.70
2022-08-08T21:13:08.934Z,100719.11
2022-08-08T21:16:05.587Z,100715.15
2022-08-08T21:18:38.194Z,100722.14
2022-08-08T21:21:39.967Z,100722.05
2022-08-08T21:24:30.065Z,100725.20
2022-08-08T21:27:06.207Z,100716.83
2022-08-08T21:30:03.962Z,100718.44
2022-08-08T21:32:40.235Z,100729.33
2022-08-08T21:36:17.368Z,100731.40
2022-08-08T21:38:16.455Z,100729.95
2022-08-08T21:40:56.200Z,100721.64
2022-08-08T21:43:34.974Z,100731.95
2022-08-08T21:48:00.772Z,100731.42
2022-08-08T21:49:08.079Z,100729.33
2022-08-08T21:54:32.732Z,100716.15
2022-08-08T21:54:54.135Z,100714.72
2022-08-08T21:57:42.104Z,100709.38
2022-08-08T22:00:26.178Z,100717.21
2022-08-08T22:03:01.743Z,100727.02
2022-08-08T22:05:37.652Z,100731.10
2022-08-08T22:08:16.485Z,100730.60
2022-08-08T22:11:03.328Z,100733.69
2022-08-08T22:14:00.803Z,100733.62
2022-08-08T22:16:36.542Z,100728.01
2022-08-08T22:19:16.436Z,100729.13
2022-08-08T22:21:52.833Z,100723.23
2022-08-08T22:24:28.756Z,100725.61
2022-08-08T22:27:03.447Z,100723.19
2022-08-08T22:30:01.490Z,100715.88
2022-08-08T22:32:32.882Z,100715.82
2022-08-08T22:35:07.836Z,100717.25
2022-08-08T22:37:54.440Z,100716.47
2022-08-08T22:40:32.667Z,100705.61
2022-08-08T22:43:10.120Z,100711.95
2022-08-08T22:45:46.741Z,100705.89
2022-08-08T22:48:28.949Z,100702.98
2022-08-08T22:51:06.837Z,100701.80
2022-08-08T22:54:30.811Z,100707.92
2022-08-08T22:56:36.288Z,100699.65
2022-08-08T22:59:11.786Z,100705.75
2022-08-08T23:02:02.789Z,100703.49
2022-08-08T23:05:04.873Z,100697.50
2022-08-08T23:07:51.407Z,100691.30
2022-08-08T23:10:36.325Z,100685.84
2022-08-08T23:13:10.439Z,100698.55
2022-08-08T23:16:37.932Z,100706.11
2022-08-08T23:18:40.124Z,100704.58
2022-08-08T23:21:14.481Z,100709.38
2022-08-08T23:23:56.334Z,100700.13
2022-08-08T23:26:32.309Z,100700.77
2022-08-08T23:29:11.013Z,100702.44
2022-08-08T23:31:45.322Z,100702.44
2022-08-08T23:34:19.692Z,100704.44
2022-08-08T23:37:00.716Z,100693.64
2022-08-08T23:39:41.999Z,100690.54
2022-08-08T23:42:24.725Z,100690.65
2022-08-08T23:44:59.397Z,100710.73
2022-08-08T23:49:06.938Z,100697.59
2022-08-08T23:50:31.896Z,100703.56
2022-08-08T23:53:05.781Z,100707.16
2022-08-08T23:55:42.244Z,100708.98
2022-08-08T23:58:37.834Z,100709.00
